Lunes, 22 de Diciembre del 2014

portal contactenos mapa del sitio buscar Revisar Correo Corporativo

Reporte METAR Consolidado

|| Reporte TAF Consolidado ||

Informe METAR emitido cada hora.

METAR

ESTACIÓN

AEROPUERTO

HORA UTC

DESCRIPCIÓN

SLGM

Guayaramerín

10-49S|65-20W

10:00

SLGM 221000Z 00000KT 8000 VCSH SCT020 BKN080 24/24 Q1009 A2982 HR98 SH NW=

SLRI

Riberalta

11-00S|66-04W

10:00

SLRI 221000Z 00000KT 8000 VCSH SCT004 FEW020CB BKN070 24/24 Q1010 A2984 HR98 CB SH NE=

SLCO

Cobija

11-02S|68-47W

10:00

SLCO 221000Z 00000KT 9999 BKN070 24/22 Q1011 A2986 983.8 CI HR90=

SLJO

San Joaquin

13-03S|64-39W

10:00

SLJO 221000Z 00000KT 9999 SCT020 BKN080 24/24 Q1009 A2982 HR97 RWY NML=

SLRA

San Ramón

13-15S|64-36W

10:00

SLRA 221000Z 00000KT 8000 VCSH SCT020 BKN080 24/23 Q1009 A2982 HR98 SH E/SE RWY HUM OPR=

SLMG

San Magdalena

13-15S|64-03W

10:00

SLMG 221000Z 00000KT 9999 BKN020 OVC070 24/23 Q1010 A2983 HR96 RWY OPR C207=

SLBU

Baures

13-39S|63-42W

10:00

SLBU 221000Z NIL=

SLSA

Santa Ana de Yacuma

13-45S|65-26W

10:00

SLSA 221000Z 36005KT 9999 FEW020 BKN070 BKN200 24/24 Q1008 A2977 HR96=

SLSR

Santa Rosa

14-04S|66-47W

10:00

SLSR 221000Z 35005KT 8000 VCSH FEW008 FEW023CB SCT070 BKN200 24/23 Q1006 A2971 HR96 CB/SH S/SW/W RWY OPR C206=

SLRY

Reyes

14-18S|67-21W

10:00

SLRY 221000Z 34006KT 9999 FEW006 BKN030 OVC200 23/23 Q1010 A2983 HR98 RERA RWY WET INOP=

SLRQ

Rurrenabaque

14-25S|67-29W

10:00

COR SLRQ 221000Z 00000KT 9999 SCT004 OVC010 24/24 Q1008 A2979 HR98=

SLAP

Apolo

14-44S|68-24W

-

Mensaje no Recibido

SLTR

Trinidad

14-49S|64-54W

10:00

SLTR 221000Z 34005KT 9999 FEW004 BKN080 25/23 Q1009 A2982 991.3 HR92 NOSIG=

SLSB

San Borja

14-51S|66-44W

10:00

SLSB 221000Z NIL=

SLSM

San Ignacio de Moxos

14-57S|65-38W

10:00

SLSM 221000Z 36006KT 9999 BKN015 BKN080 24/23 Q1008 A2977 HR98 RWY HUM OPR=

SLAS

Ascención de Guarayos

15-55S|63-09W

23:00

SLAS 212300Z 36006KT 9999 FEW020 SCT070 OVC200 26/24 Q1006 A2971 HR85 RWY HUM OPR=

SLCP

Concepción

16-08S|62-01W

10:00

SLCP 221000Z 00000KT 9999 BKN005 BKN200 22/22 Q1013 A2991 HR99 RWY HUM OPR=

SLLP

Internaciónal El Alto

16-08S|68-10W

10:00

SLLP 221000Z 15004KT 9999 FEW003 FEW017CB BKN200 05/03 Q1035 A3057 626.3 P92XX CB/DIST NE AC HR86 NOSIG=

SLJV

San Javier

16-16S|62-28W

22:00

SLJV 212200Z 36010KT 9999 SCT015 26/23 Q1005 A2968 HR85 RWY HUM OPR=

SLTI

San Matías

16-20S|58-24W

22:00

SLTI 212200Z 00000KT 9999 BKN017 26/25 Q1011 A2985 HR92 RERA RWY WET OPR=

SLSI

San Ignacio de Velasco

16-23S|60-57W

10:00

SLSI 221000Z 00000KT 9999 BKN015 23/22 Q1012 A2988 HR98 RWY NML =

SLCB

Cochabamba

17-25S|66-10W

10:00

SLCB 221000Z 00000KT 9000 FEW027 BKN080 BKN200 15/10 Q1022 A3021 749.8 HR70 FU NOSIG=

SLCN

Charaña

17-35S|69-25W

-

Mensaje no Recibido

SLVR

Internaciónal Viru Viru

17-38S|63-08W

10:00

SLVR 221000Z 20006KT 1500 RA SCT005 BKN010 OVC070 21/21 Q1011 A2986 HR100 TEMPO 3000=

SLET

El Trompillo

17-48S|63-10W

10:00

SLET 221000Z 16005KT 1200 RA BKN006 BKN010 OVC070 20/20 Q1011 A2987 HR100 NOSIG=

SLJE

San José de Chiquitos

17-49S|60-44W

18:00

SLJE 211800Z 00000KT 9999 SCT017 OVC070 29/25 Q1011 A2985 HR71 RWY HUM OPR C206=

SLOR

Oruro

17-57S|67-04W

10:00

SLOR 221000Z 04003KT 9999 FEW070 02/M04 Q1033 A3052 655.0 HR63=

SLRB

Roboré

18-19S|59-45W

10:00

SLRB 221000Z 00000KT 9999 SCT015 25/24 Q1012 A2988 HR91 RWY NML =

SLVG

Valle Grande

18-28S|64-05W

18:00

SLVG 211800Z 35007KT 9999 TS SCT027 FEW030CB BKN200 25/16 Q1018 A3006 HR54 TS/CB S RWY NML=

SLPS

Puerto Suárez

18-58S|57-49W

10:00

SLPS 221000Z 00000KT 8000 -TSRA BKN017 FEW027CB OVC070 25/25 Q1009 A2980 HR100 CB/TS SE/S=

SLSU

Sucre

19-00S|65-17W

10:00

SLSU 221000Z 02005KT 9999 FEW012 SCT070 13/11 Q1027 A3034 HR88=

SLPO

Potosí

19-32S|65-43W

10:00

SLPO 221000Z 00000KT 9999 SCT070 BKN200 02/M05 Q1035 A3056 HR64=

SLAG

Monteagudo

19-49S|63-58W

17:00

SLAG 201700Z 00000KT 9999 NSC 30/22 Q1004 A2975 HR61 RWY CLSD=

SLCA

Camiri

20-00S|63-31W

10:00

SLCA 221000Z 00000KT 9999 OVC015 19/18 Q1018 A3006 HR94 RWY HUM OPR=

SLUY

Uyuni

20-27S|62-52W

10:00

SLUY 221000Z 06003KT 9999 FEW080 02/M06 Q1032 A3049 657.1 CI HR64=

SLVM

Villamontes

21-15S|63-24W

10:00

RTD SLVM 221000Z 00000KT 9999 SCT015 OVC070 18/17 Q1016 A3000 HR96=

SLTJ

Tarija

21-33S|64-42W

10:00

SLTJ 221000Z 17004KT 6000 VCSH SCT008 BKN015 OVC070 15/13 Q1020 A3012 HR87 VIS RED ST BAJOS SH SW/W/NW/N RESTO 9999=

SLYA

Yacuiba

21-57S|63-39W

10:00

SLYA 221000Z 18010KT 1800 -DZ BKN003 OVC070 16/16 Q1018 A3008 HR100=

SLBJ

Bermejo

22-46S|64-18W

17:00

SLBJ 201700Z 00000KT 9999 NSC 34/25 Q0997 A2944 HR60 CI=